sensor_id;sensor_type;location;lat;lon;timestamp;temperature;humidity
7942;HTU21D;4016;50.758;7.150;2022-07-30T00:00:16;17.92;97.66
7942;HTU21D;4016;50.758;7.150;2022-07-30T00:05:16;17.83;98.81
7942;HTU21D;4016;50.758;7.150;2022-07-30T00:10:17;17.68;99.35
7942;HTU21D;4016;50.758;7.150;2022-07-30T00:15:17;17.58;99.85
7942;HTU21D;4016;50.758;7.150;2022-07-30T00:20:17;17.48;100.61
7942;HTU21D;4016;50.758;7.150;2022-07-30T00:25:18;17.46;101.32
7942;HTU21D;4016;50.758;7.150;2022-07-30T00:30:18;17.43;101.62
7942;HTU21D;4016;50.758;7.150;2022-07-30T00:35:19;17.39;101.68
7942;HTU21D;4016;50.758;7.150;2022-07-30T00:40:19;17.26;102.04
7942;HTU21D;4016;50.758;7.150;2022-07-30T00:45:19;17.15;103.08
7942;HTU21D;4016;50.758;7.150;2022-07-30T00:50:20;17.11;102.85
7942;HTU21D;4016;50.758;7.150;2022-07-30T00:55:20;17.15;103.02
7942;HTU21D;4016;50.758;7.150;2022-07-30T01:00:21;17.03;103.18
7942;HTU21D;4016;50.758;7.150;2022-07-30T01:05:22;16.91;102.92
7942;HTU21D;4016;50.758;7.150;2022-07-30T01:10:23;16.90;104.24
7942;HTU21D;4016;50.758;7.150;2022-07-30T01:15:24;16.89;104.52
7942;HTU21D;4016;50.758;7.150;2022-07-30T01:20:32;16.76;105.37
7942;HTU21D;4016;50.758;7.150;2022-07-30T01:25:49;16.67;106.40
7942;HTU21D;4016;50.758;7.150;2022-07-30T01:30:51;16.54;107.03
7942;HTU21D;4016;50.758;7.150;2022-07-30T01:35:53;16.48;107.84
7942;HTU21D;4016;50.758;7.150;2022-07-30T01:40:56;16.35;107.77
7942;HTU21D;4016;50.758;7.150;2022-07-30T01:45:57;16.30;108.17
7942;HTU21D;4016;50.758;7.150;2022-07-30T01:51:02;16.25;107.48
7942;HTU21D;4016;50.758;7.150;2022-07-30T01:56:04;16.24;108.38
7942;HTU21D;4016;50.758;7.150;2022-07-30T02:01:04;16.24;109.33
7942;HTU21D;4016;50.758;7.150;2022-07-30T02:06:13;16.20;109.85
7942;HTU21D;4016;50.758;7.150;2022-07-30T02:11:15;16.18;110.01
7942;HTU21D;4016;50.758;7.150;2022-07-30T02:16:39;16.19;110.07
7942;HTU21D;4016;50.758;7.150;2022-07-30T02:21:45;16.20;110.62
7942;HTU21D;4016;50.758;7.150;2022-07-30T02:26:49;16.28;110.15
7942;HTU21D;4016;50.758;7.150;2022-07-30T02:31:53;16.33;109.57
7942;HTU21D;4016;50.758;7.150;2022-07-30T02:36:56;16.46;108.50
7942;HTU21D;4016;50.758;7.150;2022-07-30T02:41:57;16.50;107.29
7942;HTU21D;4016;50.758;7.150;2022-07-30T02:46:59;16.47;107.24
7942;HTU21D;4016;50.758;7.150;2022-07-30T02:52:02;16.45;107.41
7942;HTU21D;4016;50.758;7.150;2022-07-30T02:57:05;16.37;106.64
7942;HTU21D;4016;50.758;7.150;2022-07-30T03:02:07;16.31;106.72
7942;HTU21D;4016;50.758;7.150;2022-07-30T03:07:09;16.20;107.02
7942;HTU21D;4016;50.758;7.150;2022-07-30T03:12:10;16.16;107.48
7942;HTU21D;4016;50.758;7.150;2022-07-30T03:17:14;16.22;107.49
7942;HTU21D;4016;50.758;7.150;2022-07-30T03:22:16;16.21;107.94
7942;HTU21D;4016;50.758;7.150;2022-07-30T03:27:17;16.15;107.40
7942;HTU21D;4016;50.758;7.150;2022-07-30T03:32:18;16.18;107.64
7942;HTU21D;4016;50.758;7.150;2022-07-30T03:37:19;16.13;107.52
7942;HTU21D;4016;50.758;7.150;2022-07-30T03:42:20;16.20;107.40
7942;HTU21D;4016;50.758;7.150;2022-07-30T03:47:21;16.16;107.59
7942;HTU21D;4016;50.758;7.150;2022-07-30T03:52:22;16.15;107.27
7942;HTU21D;4016;50.758;7.150;2022-07-30T03:57:24;16.19;107.66
7942;HTU21D;4016;50.758;7.150;2022-07-30T04:02:25;16.13;107.59
7942;HTU21D;4016;50.758;7.150;2022-07-30T04:07:25;16.21;107.55
7942;HTU21D;4016;50.758;7.150;2022-07-30T04:12:26;16.27;107.29
7942;HTU21D;4016;50.758;7.150;2022-07-30T04:17:37;16.29;107.22
7942;HTU21D;4016;50.758;7.150;2022-07-30T04:22:39;16.22;107.33
7942;HTU21D;4016;50.758;7.150;2022-07-30T04:27:41;16.44;106.68
7942;HTU21D;4016;50.758;7.150;2022-07-30T04:32:42;16.40;106.76
7942;HTU21D;4016;50.758;7.150;2022-07-30T04:37:42;16.46;106.37
7942;HTU21D;4016;50.758;7.150;2022-07-30T04:42:42;16.45;106.50
7942;HTU21D;4016;50.758;7.150;2022-07-30T04:47:43;16.66;105.65
7942;HTU21D;4016;50.758;7.150;2022-07-30T04:52:44;16.61;105.72
7942;HTU21D;4016;50.758;7.150;2022-07-30T04:57:45;16.67;105.59
7942;HTU21D;4016;50.758;7.150;2022-07-30T05:02:48;16.70;105.21
7942;HTU21D;4016;50.758;7.150;2022-07-30T05:07:48;16.86;104.50
7942;HTU21D;4016;50.758;7.150;2022-07-30T05:12:49;16.73;105.56
7942;HTU21D;4016;50.758;7.150;2022-07-30T05:17:50;16.85;105.03
7942;HTU21D;4016;50.758;7.150;2022-07-30T05:22:50;17.02;104.00
7942;HTU21D;4016;50.758;7.150;2022-07-30T05:27:51;17.09;103.55
7942;HTU21D;4016;50.758;7.150;2022-07-30T05:32:51;17.07;104.34
7942;HTU21D;4016;50.758;7.150;2022-07-30T05:37:52;17.07;104.53
7942;HTU21D;4016;50.758;7.150;2022-07-30T05:42:52;17.09;104.08
7942;HTU21D;4016;50.758;7.150;2022-07-30T05:47:52;17.19;104.28
7942;HTU21D;4016;50.758;7.150;2022-07-30T05:52:53;17.52;102.99
7942;HTU21D;4016;50.758;7.150;2022-07-30T05:57:55;17.40;104.06
7942;HTU21D;4016;50.758;7.150;2022-07-30T06:02:55;17.48;103.97
7942;HTU21D;4016;50.758;7.150;2022-07-30T06:07:55;17.53;104.60
7942;HTU21D;4016;50.758;7.150;2022-07-30T06:12:56;17.67;104.18
7942;HTU21D;4016;50.758;7.150;2022-07-30T06:17:56;17.85;103.68
7942;HTU21D;4016;50.758;7.150;2022-07-30T06:22:57;17.93;104.12
7942;HTU21D;4016;50.758;7.150;2022-07-30T06:27:57;18.06;103.99
7942;HTU21D;4016;50.758;7.150;2022-07-30T06:32:57;18.21;103.86
7942;HTU21D;4016;50.758;7.150;2022-07-30T06:37:58;18.61;101.60
7942;HTU21D;4016;50.758;7.150;2022-07-30T06:42:59;18.74;100.54
7942;HTU21D;4016;50.758;7.150;2022-07-30T06:47:59;18.92;100.63
7942;HTU21D;4016;50.758;7.150;2022-07-30T06:52:59;19.25;98.33
7942;HTU21D;4016;50.758;7.150;2022-07-30T06:58:00;19.43;98.08
7942;HTU21D;4016;50.758;7.150;2022-07-30T07:03:00;19.68;96.17
7942;HTU21D;4016;50.758;7.150;2022-07-30T07:08:01;20.00;94.85
7942;HTU21D;4016;50.758;7.150;2022-07-30T07:13:01;20.45;91.98
7942;HTU21D;4016;50.758;7.150;2022-07-30T07:18:02;20.72;90.68
7942;HTU21D;4016;50.758;7.150;2022-07-30T07:23:02;21.24;87.99
7942;HTU21D;4016;50.758;7.150;2022-07-30T07:28:03;21.51;86.08
7942;HTU21D;4016;50.758;7.150;2022-07-30T07:33:03;21.88;84.65
7942;HTU21D;4016;50.758;7.150;2022-07-30T07:38:04;22.29;83.13
7942;HTU21D;4016;50.758;7.150;2022-07-30T07:43:04;22.81;80.65
7942;HTU21D;4016;50.758;7.150;2022-07-30T07:48:05;23.24;78.30
7942;HTU21D;4016;50.758;7.150;2022-07-30T07:53:06;23.57;75.52
7942;HTU21D;4016;50.758;7.150;2022-07-30T07:58:06;23.67;75.45
7942;HTU21D;4016;50.758;7.150;2022-07-30T08:03:06;23.89;74.03
7942;HTU21D;4016;50.758;7.150;2022-07-30T08:08:07;24.19;71.70
7942;HTU21D;4016;50.758;7.150;2022-07-30T08:13:07;24.53;71.55
7942;HTU21D;4016;50.758;7.150;2022-07-30T08:18:08;24.61;70.29
7942;HTU21D;4016;50.758;7.150;2022-07-30T08:23:10;24.76;68.17
7942;HTU21D;4016;50.758;7.150;2022-07-30T08:28:10;24.76;67.17
7942;HTU21D;4016;50.758;7.150;2022-07-30T08:33:10;25.08;64.68
7942;HTU21D;4016;50.758;7.150;2022-07-30T08:38:12;25.06;65.36
7942;HTU21D;4016;50.758;7.150;2022-07-30T08:43:14;25.01;64.16
7942;HTU21D;4016;50.758;7.150;2022-07-30T08:48:15;25.50;61.40
7942;HTU21D;4016;50.758;7.150;2022-07-30T08:53:19;25.76;60.38
7942;HTU21D;4016;50.758;7.150;2022-07-30T08:58:32;25.68;57.81
7942;HTU21D;4016;50.758;7.150;2022-07-30T09:03:36;25.53;58.76
7942;HTU21D;4016;50.758;7.150;2022-07-30T09:08:37;25.27;58.21
7942;HTU21D;4016;50.758;7.150;2022-07-30T09:13:39;25.66;56.65
7942;HTU21D;4016;50.758;7.150;2022-07-30T09:18:43;25.74;57.32
7942;HTU21D;4016;50.758;7.150;2022-07-30T09:29:17;24.51;59.78
7942;HTU21D;4016;50.758;7.150;2022-07-30T09:34:25;24.88;59.13
7942;HTU21D;4016;50.758;7.150;2022-07-30T09:39:39;25.51;58.40
7942;HTU21D;4016;50.758;7.150;2022-07-30T09:44:40;25.82;55.93
7942;HTU21D;4016;50.758;7.150;2022-07-30T09:49:41;26.45;54.14
7942;HTU21D;4016;50.758;7.150;2022-07-30T09:54:49;26.86;49.44
7942;HTU21D;4016;50.758;7.150;2022-07-30T09:59:50;26.70;48.31
7942;HTU21D;4016;50.758;7.150;2022-07-30T10:04:50;26.92;48.02
7942;HTU21D;4016;50.758;7.150;2022-07-30T10:09:51;26.89;48.35
7942;HTU21D;4016;50.758;7.150;2022-07-30T10:14:52;26.79;43.57
7942;HTU21D;4016;50.758;7.150;2022-07-30T10:19:54;26.77;43.18
7942;HTU21D;4016;50.758;7.150;2022-07-30T10:24:55;26.86;47.79
7942;HTU21D;4016;50.758;7.150;2022-07-30T10:29:56;27.17;45.77
7942;HTU21D;4016;50.758;7.150;2022-07-30T10:34:58;27.36;45.34
7942;HTU21D;4016;50.758;7.150;2022-07-30T10:40:06;27.36;46.35
7942;HTU21D;4016;50.758;7.150;2022-07-30T10:50:53;27.45;44.73
7942;HTU21D;4016;50.758;7.150;2022-07-30T10:56:10;27.82;43.73
7942;HTU21D;4016;50.758;7.150;2022-07-30T11:01:12;27.68;42.47
7942;HTU21D;4016;50.758;7.150;2022-07-30T11:17:08;27.68;36.79
7942;HTU21D;4016;50.758;7.150;2022-07-30T11:21:44;27.93;35.15
7942;HTU21D;4016;50.758;7.150;2022-07-30T11:26:47;28.11;30.67
7942;HTU21D;4016;50.758;7.150;2022-07-30T11:31:48;28.24;32.27
7942;HTU21D;4016;50.758;7.150;2022-07-30T11:37:08;28.73;33.67
7942;HTU21D;4016;50.758;7.150;2022-07-30T11:42:25;29.00;34.32
7942;HTU21D;4016;50.758;7.150;2022-07-30T11:47:26;29.18;31.56
7942;HTU21D;4016;50.758;7.150;2022-07-30T11:52:27;28.93;30.18
7942;HTU21D;4016;50.758;7.150;2022-07-30T11:57:41;28.97;27.25
7942;HTU21D;4016;50.758;7.150;2022-07-30T12:02:41;28.70;30.31
7942;HTU21D;4016;50.758;7.150;2022-07-30T12:07:42;28.50;30.34
7942;HTU21D;4016;50.758;7.150;2022-07-30T12:12:43;28.85;30.29
7942;HTU21D;4016;50.758;7.150;2022-07-30T12:17:45;28.84;30.64
7942;HTU21D;4016;50.758;7.150;2022-07-30T12:22:46;29.46;28.96
7942;HTU21D;4016;50.758;7.150;2022-07-30T12:27:47;29.43;30.95
7942;HTU21D;4016;50.758;7.150;2022-07-30T12:32:48;28.79;31.93
7942;HTU21D;4016;50.758;7.150;2022-07-30T12:38:02;29.33;31.93
7942;HTU21D;4016;50.758;7.150;2022-07-30T12:43:03;29.60;31.26
7942;HTU21D;4016;50.758;7.150;2022-07-30T12:48:09;29.53;30.48
7942;HTU21D;4016;50.758;7.150;2022-07-30T12:53:09;29.68;29.59
7942;HTU21D;4016;50.758;7.150;2022-07-30T12:58:10;30.04;29.97
7942;HTU21D;4016;50.758;7.150;2022-07-30T13:03:23;30.01;28.26
7942;HTU21D;4016;50.758;7.150;2022-07-30T13:08:46;29.81;28.77
7942;HTU21D;4016;50.758;7.150;2022-07-30T13:13:48;29.70;28.36
7942;HTU21D;4016;50.758;7.150;2022-07-30T13:18:48;30.17;28.85
7942;HTU21D;4016;50.758;7.150;2022-07-30T13:23:49;30.53;29.51
7942;HTU21D;4016;50.758;7.150;2022-07-30T13:28:49;30.67;28.59
7942;HTU21D;4016;50.758;7.150;2022-07-30T13:33:50;30.81;28.38
7942;HTU21D;4016;50.758;7.150;2022-07-30T13:38:50;31.07;27.04
7942;HTU21D;4016;50.758;7.150;2022-07-30T13:43:51;30.80;26.73
7942;HTU21D;4016;50.758;7.150;2022-07-30T13:48:51;30.56;27.62
7942;HTU21D;4016;50.758;7.150;2022-07-30T13:53:52;30.97;28.28
7942;HTU21D;4016;50.758;7.150;2022-07-30T13:58:52;31.52;27.13
7942;HTU21D;4016;50.758;7.150;2022-07-30T14:03:53;30.82;28.13
7942;HTU21D;4016;50.758;7.150;2022-07-30T14:08:54;30.67;28.76
7942;HTU21D;4016;50.758;7.150;2022-07-30T14:13:54;30.97;27.45
7942;HTU21D;4016;50.758;7.150;2022-07-30T14:18:55;30.84;27.26
7942;HTU21D;4016;50.758;7.150;2022-07-30T14:23:56;30.68;28.42
7942;HTU21D;4016;50.758;7.150;2022-07-30T14:28:57;31.16;27.24
7942;HTU21D;4016;50.758;7.150;2022-07-30T14:33:57;30.91;26.88
7942;HTU21D;4016;50.758;7.150;2022-07-30T14:38:58;31.05;27.51
7942;HTU21D;4016;50.758;7.150;2022-07-30T14:43:59;30.72;27.51
7942;HTU21D;4016;50.758;7.150;2022-07-30T14:48:59;30.34;27.37
7942;HTU21D;4016;50.758;7.150;2022-07-30T14:54:00;30.04;28.46
7942;HTU21D;4016;50.758;7.150;2022-07-30T14:59:00;29.92;29.61
7942;HTU21D;4016;50.758;7.150;2022-07-30T15:04:00;30.18;29.53
7942;HTU21D;4016;50.758;7.150;2022-07-30T15:09:01;30.11;30.13
7942;HTU21D;4016;50.758;7.150;2022-07-30T15:14:01;30.48;29.53
7942;HTU21D;4016;50.758;7.150;2022-07-30T15:19:02;29.68;30.68
7942;HTU21D;4016;50.758;7.150;2022-07-30T15:24:03;29.64;31.95
7942;HTU21D;4016;50.758;7.150;2022-07-30T15:29:03;29.72;31.23
7942;HTU21D;4016;50.758;7.150;2022-07-30T15:34:04;29.59;32.00
7942;HTU21D;4016;50.758;7.150;2022-07-30T15:39:09;29.85;31.19
7942;HTU21D;4016;50.758;7.150;2022-07-30T15:44:10;29.90;30.19
7942;HTU21D;4016;50.758;7.150;2022-07-30T15:49:12;30.23;30.51
7942;HTU21D;4016;50.758;7.150;2022-07-30T15:54:14;30.11;29.79
7942;HTU21D;4016;50.758;7.150;2022-07-30T15:59:15;29.97;30.58
7942;HTU21D;4016;50.758;7.150;2022-07-30T16:04:15;30.10;30.54
7942;HTU21D;4016;50.758;7.150;2022-07-30T16:09:15;30.38;29.81
7942;HTU21D;4016;50.758;7.150;2022-07-30T16:14:16;30.33;29.29
7942;HTU21D;4016;50.758;7.150;2022-07-30T16:19:16;30.28;30.26
7942;HTU21D;4016;50.758;7.150;2022-07-30T16:24:17;30.10;30.63
7942;HTU21D;4016;50.758;7.150;2022-07-30T16:29:17;30.41;30.73
7942;HTU21D;4016;50.758;7.150;2022-07-30T16:34:18;30.06;30.93
7942;HTU21D;4016;50.758;7.150;2022-07-30T16:39:18;29.79;31.99
7942;HTU21D;4016;50.758;7.150;2022-07-30T16:44:19;29.79;32.06
7942;HTU21D;4016;50.758;7.150;2022-07-30T16:49:19;29.61;32.50
7942;HTU21D;4016;50.758;7.150;2022-07-30T16:54:19;29.48;32.38
7942;HTU21D;4016;50.758;7.150;2022-07-30T16:59:21;29.21;32.96
7942;HTU21D;4016;50.758;7.150;2022-07-30T17:04:21;28.84;33.54
7942;HTU21D;4016;50.758;7.150;2022-07-30T17:09:22;28.65;33.19
7942;HTU21D;4016;50.758;7.150;2022-07-30T17:14:22;28.50;32.70
7942;HTU21D;4016;50.758;7.150;2022-07-30T17:19:22;28.30;32.67
7942;HTU21D;4016;50.758;7.150;2022-07-30T17:24:23;28.19;32.90
7942;HTU21D;4016;50.758;7.150;2022-07-30T17:29:23;28.23;33.42
7942;HTU21D;4016;50.758;7.150;2022-07-30T17:34:23;28.49;32.70
7942;HTU21D;4016;50.758;7.150;2022-07-30T17:39:24;28.61;32.73
7942;HTU21D;4016;50.758;7.150;2022-07-30T17:44:24;29.15;31.68
7942;HTU21D;4016;50.758;7.150;2022-07-30T17:49:25;29.33;30.20
7942;HTU21D;4016;50.758;7.150;2022-07-30T17:54:25;29.02;31.57
7942;HTU21D;4016;50.758;7.150;2022-07-30T17:59:26;28.16;33.39
7942;HTU21D;4016;50.758;7.150;2022-07-30T18:04:26;27.73;34.72
7942;HTU21D;4016;50.758;7.150;2022-07-30T18:09:27;27.67;35.39
7942;HTU21D;4016;50.758;7.150;2022-07-30T18:14:27;27.34;36.40
7942;HTU21D;4016;50.758;7.150;2022-07-30T18:19:27;26.99;37.33
7942;HTU21D;4016;50.758;7.150;2022-07-30T18:24:28;26.97;37.66
7942;HTU21D;4016;50.758;7.150;2022-07-30T18:29:28;26.72;38.62
7942;HTU21D;4016;50.758;7.150;2022-07-30T18:34:29;26.45;39.72
7942;HTU21D;4016;50.758;7.150;2022-07-30T18:39:29;26.22;40.42
7942;HTU21D;4016;50.758;7.150;2022-07-30T18:44:30;26.17;41.32
7942;HTU21D;4016;50.758;7.150;2022-07-30T18:49:30;25.98;42.22
7942;HTU21D;4016;50.758;7.150;2022-07-30T18:54:31;25.89;42.83
7942;HTU21D;4016;50.758;7.150;2022-07-30T18:59:31;25.75;43.51
7942;HTU21D;4016;50.758;7.150;2022-07-30T19:04:32;25.63;44.19
7942;HTU21D;4016;50.758;7.150;2022-07-30T19:09:32;25.46;44.60
7942;HTU21D;4016;50.758;7.150;2022-07-30T19:14:33;25.34;45.41
7942;HTU21D;4016;50.758;7.150;2022-07-30T19:19:33;25.27;45.77
7942;HTU21D;4016;50.758;7.150;2022-07-30T19:24:34;25.16;47.35
7942;HTU21D;4016;50.758;7.150;2022-07-30T19:29:34;25.30;46.19
7942;HTU21D;4016;50.758;7.150;2022-07-30T19:34:35;24.93;47.47
7942;HTU21D;4016;50.758;7.150;2022-07-30T19:39:36;24.77;48.60
7942;HTU21D;4016;50.758;7.150;2022-07-30T19:44:37;24.68;48.44
7942;HTU21D;4016;50.758;7.150;2022-07-30T19:49:37;24.51;49.47
7942;HTU21D;4016;50.758;7.150;2022-07-30T19:54:39;24.46;50.66
7942;HTU21D;4016;50.758;7.150;2022-07-30T19:59:40;24.34;52.08
7942;HTU21D;4016;50.758;7.150;2022-07-30T20:04:41;24.17;52.91
7942;HTU21D;4016;50.758;7.150;2022-07-30T20:09:41;24.02;53.89
7942;HTU21D;4016;50.758;7.150;2022-07-30T20:14:43;23.90;55.09
7942;HTU21D;4016;50.758;7.150;2022-07-30T20:19:44;23.80;56.29
7942;HTU21D;4016;50.758;7.150;2022-07-30T20:24:45;23.67;56.47
7942;HTU21D;4016;50.758;7.150;2022-07-30T20:29:47;23.52;57.51
7942;HTU21D;4016;50.758;7.150;2022-07-30T20:34:48;23.37;58.09
7942;HTU21D;4016;50.758;7.150;2022-07-30T20:39:48;23.21;59.07
7942;HTU21D;4016;50.758;7.150;2022-07-30T20:44:49;23.11;58.97
7942;HTU21D;4016;50.758;7.150;2022-07-30T20:49:50;23.07;59.02
7942;HTU21D;4016;50.758;7.150;2022-07-30T20:54:50;22.99;60.10
7942;HTU21D;4016;50.758;7.150;2022-07-30T20:59:51;22.95;60.20
7942;HTU21D;4016;50.758;7.150;2022-07-30T21:04:51;22.85;60.47
7942;HTU21D;4016;50.758;7.150;2022-07-30T21:09:52;22.80;61.02
7942;HTU21D;4016;50.758;7.150;2022-07-30T21:14:52;22.72;61.73
7942;HTU21D;4016;50.758;7.150;2022-07-30T21:19:53;22.69;62.03
7942;HTU21D;4016;50.758;7.150;2022-07-30T21:24:53;22.66;62.59
7942;HTU21D;4016;50.758;7.150;2022-07-30T21:29:54;22.60;62.58
7942;HTU21D;4016;50.758;7.150;2022-07-30T21:34:55;22.53;64.10
7942;HTU21D;4016;50.758;7.150;2022-07-30T21:39:55;22.46;65.43
7942;HTU21D;4016;50.758;7.150;2022-07-30T21:44:56;22.37;66.08
7942;HTU21D;4016;50.758;7.150;2022-07-30T21:49:57;22.32;66.72
7942;HTU21D;4016;50.758;7.150;2022-07-30T21:54:57;22.24;67.39
7942;HTU21D;4016;50.758;7.150;2022-07-30T21:59:58;22.18;67.05
7942;HTU21D;4016;50.758;7.150;2022-07-30T22:04:58;22.10;67.30
7942;HTU21D;4016;50.758;7.150;2022-07-30T22:09:59;22.03;67.24
7942;HTU21D;4016;50.758;7.150;2022-07-30T22:14:59;21.96;67.75
7942;HTU21D;4016;50.758;7.150;2022-07-30T22:19:59;21.94;67.04
7942;HTU21D;4016;50.758;7.150;2022-07-30T22:25:00;21.95;67.65
7942;HTU21D;4016;50.758;7.150;2022-07-30T22:30:00;21.84;68.35
7942;HTU21D;4016;50.758;7.150;2022-07-30T22:35:01;21.76;70.34
7942;HTU21D;4016;50.758;7.150;2022-07-30T22:40:03;21.70;71.64
7942;HTU21D;4016;50.758;7.150;2022-07-30T22:45:04;21.67;71.83
7942;HTU21D;4016;50.758;7.150;2022-07-30T22:50:05;21.65;72.99
7942;HTU21D;4016;50.758;7.150;2022-07-30T22:55:06;21.58;74.17
7942;HTU21D;4016;50.758;7.150;2022-07-30T23:00:09;21.49;74.17
7942;HTU21D;4016;50.758;7.150;2022-07-30T23:05:14;21.44;75.28
7942;HTU21D;4016;50.758;7.150;2022-07-30T23:10:16;21.32;76.60
7942;HTU21D;4016;50.758;7.150;2022-07-30T23:15:17;21.27;77.22
7942;HTU21D;4016;50.758;7.150;2022-07-30T23:20:19;21.19;79.45
7942;HTU21D;4016;50.758;7.150;2022-07-30T23:25:19;21.09;80.33
7942;HTU21D;4016;50.758;7.150;2022-07-30T23:30:20;21.08;81.64
7942;HTU21D;4016;50.758;7.150;2022-07-30T23:35:20;21.02;81.05
7942;HTU21D;4016;50.758;7.150;2022-07-30T23:40:20;21.00;79.71
7942;HTU21D;4016;50.758;7.150;2022-07-30T23:45:21;20.96;79.35
7942;HTU21D;4016;50.758;7.150;2022-07-30T23:50:21;20.93;80.32
7942;HTU21D;4016;50.758;7.150;2022-07-30T23:55:22;20.87;81.07
